Aeroporto :
LOGIN :

Iscrizione | Disclaimer

   EN    FR    IT 

 










Sommario :    VFR   VFR Marginale   IFR   IFR Intensivo   IFR Molto Intensivo
Visibilità : 
Base nubi : 
>= 8 km
>= 3000ft
5 / 8 km
1000 / 3000 ft
1500m / 5 km
500 / 1000 ft
800 / 1500m
200 / 500 ft
< 800m
< 200 ft
Simboli :   Temporali  Nebbia  Neve Forte  Precipitazioni Forti  Vento > 20 kt
SIGMETs :   Varie  Temporali  Ghiacco  Turbolenza  Onda orograficha  Ceneri Vulcaniche






- Altitudine del aeroporto : 1043 ft
- Codice IATA : SLD


LZSL - Sliac

ULTIMO METAR :
  • 210530Z VRB01KT CAVOK M02/M03 Q1017

METARs OBSOLETI :
  • 210500Z 00000KT CAVOK M02/M04 Q1018
  • 210430Z 00000KT 9999 BKN058 M02/M04 Q1018
  • 210400Z 00000KT CAVOK M02/M04 Q1019
  • 210330Z 00000KT CAVOK M02/M04 Q1019

TAF TAF LZSL
Valido dal 21 a 06 ore il 21 a 15 ore UTC


210500Z 2106/2115 VRB02KT 9999 SCT040 BKN060
TEMPO 2108/2112 4500 -SNRA FEW005 BKN014 OVC025
BECMG 2111/2113 34010KT



MetMap, La meteo Aeronautica in un colpo d'occhio ! - Copyright ORBIFLY Dicembre 2007 - Disclaimer

ORBIFLY MET'MAP TEAM :

Programmazione e sviluppo : Alexandra Zaïnal
Concezione : Baudouin d'Aumeries
Aiuto per la programmazione : Marc-Olivier Méhu
Supporto tecnico e logistico : Manuel Goepfert
Aiuto per la traduzione : Arnaldo La Scala

Contatto : metmap@orbifly.com




FONTI E CREDITI :

   NOAA